sensor_id;sensor_type;location;lat;lon;timestamp;pressure;altitude;pressure_sealevel;temperature;humidity
75221;BME280;63802;53.232;6.570;2023-05-29T00:01:40;102651.25;;;7.72;100.00
75221;BME280;63802;53.232;6.570;2023-05-29T00:04:06;102648.81;;;7.70;100.00
75221;BME280;63802;53.232;6.570;2023-05-29T00:06:31;102658.69;;;7.66;100.00
75221;BME280;63802;53.232;6.570;2023-05-29T00:08:56;102659.50;;;7.67;100.00
75221;BME280;63802;53.232;6.570;2023-05-29T00:11:22;102661.13;;;7.68;100.00
75221;BME280;63802;53.232;6.570;2023-05-29T00:13:48;102666.75;;;7.71;100.00
75221;BME280;63802;53.232;6.570;2023-05-29T00:16:13;102658.28;;;7.73;100.00
75221;BME280;63802;53.232;6.570;2023-05-29T00:18:39;102660.66;;;7.79;100.00
75221;BME280;63802;53.232;6.570;2023-05-29T00:21:11;102655.31;;;7.74;100.00
75221;BME280;63802;53.232;6.570;2023-05-29T00:23:37;102651.03;;;7.68;100.00
75221;BME280;63802;53.232;6.570;2023-05-29T00:26:02;102661.91;;;7.68;100.00
75221;BME280;63802;53.232;6.570;2023-05-29T00:28:27;102654.38;;;7.65;100.00
75221;BME280;63802;53.232;6.570;2023-05-29T00:30:53;102654.47;;;7.60;100.00
75221;BME280;63802;53.232;6.570;2023-05-29T00:33:18;102653.66;;;7.60;100.00
75221;BME280;63802;53.232;6.570;2023-05-29T00:35:44;102651.00;;;7.55;100.00
75221;BME280;63802;53.232;6.570;2023-05-29T00:38:09;102658.34;;;7.54;100.00
75221;BME280;63802;53.232;6.570;2023-05-29T00:40:34;102670.34;;;7.53;100.00
75221;BME280;63802;53.232;6.570;2023-05-29T00:43:00;102665.47;;;7.50;100.00
75221;BME280;63802;53.232;6.570;2023-05-29T00:45:25;102666.06;;;7.47;100.00
75221;BME280;63802;53.232;6.570;2023-05-29T00:47:51;102666.66;;;7.44;100.00
75221;BME280;63802;53.232;6.570;2023-05-29T00:50:17;102672.91;;;7.44;100.00
75221;BME280;63802;53.232;6.570;2023-05-29T00:52:44;102672.41;;;7.42;100.00
75221;BME280;63802;53.232;6.570;2023-05-29T00:55:10;102674.28;;;7.42;100.00
75221;BME280;63802;53.232;6.570;2023-05-29T00:57:36;102679.16;;;7.45;100.00
75221;BME280;63802;53.232;6.570;2023-05-29T01:00:06;102683.56;;;7.41;100.00
75221;BME280;63802;53.232;6.570;2023-05-29T01:02:37;102670.72;;;7.28;100.00
75221;BME280;63802;53.232;6.570;2023-05-29T01:05:03;102678.34;;;7.26;100.00
75221;BME280;63802;53.232;6.570;2023-05-29T01:07:28;102674.81;;;7.25;100.00
75221;BME280;63802;53.232;6.570;2023-05-29T01:09:54;102680.84;;;7.22;100.00
75221;BME280;63802;53.232;6.570;2023-05-29T01:14:59;102684.94;;;7.20;100.00
75221;BME280;63802;53.232;6.570;2023-05-29T01:20:35;102695.00;;;7.38;100.00
75221;BME280;63802;53.232;6.570;2023-05-29T01:28:57;102675.53;;;7.50;100.00
75221;BME280;63802;53.232;6.570;2023-05-29T01:31:26;102678.41;;;7.58;100.00
75221;BME280;63802;53.232;6.570;2023-05-29T01:33:56;102661.06;;;7.54;100.00
75221;BME280;63802;53.232;6.570;2023-05-29T01:36:22;102668.63;;;7.57;100.00
75221;BME280;63802;53.232;6.570;2023-05-29T01:38:51;102676.47;;;7.59;100.00
75221;BME280;63802;53.232;6.570;2023-05-29T01:41:18;102676.28;;;7.55;100.00
75221;BME280;63802;53.232;6.570;2023-05-29T01:43:45;102671.94;;;7.54;100.00
75221;BME280;63802;53.232;6.570;2023-05-29T01:46:13;102664.66;;;7.50;100.00
75221;BME280;63802;53.232;6.570;2023-05-29T01:48:40;102671.19;;;7.49;100.00
75221;BME280;63802;53.232;6.570;2023-05-29T01:51:06;102674.28;;;7.42;100.00
75221;BME280;63802;53.232;6.570;2023-05-29T01:53:32;102671.06;;;7.40;100.00
75221;BME280;63802;53.232;6.570;2023-05-29T01:55:58;102675.34;;;7.46;100.00
75221;BME280;63802;53.232;6.570;2023-05-29T01:58:23;102679.16;;;7.45;100.00
75221;BME280;63802;53.232;6.570;2023-05-29T02:00:50;102685.16;;;7.42;100.00
75221;BME280;63802;53.232;6.570;2023-05-29T02:03:15;102683.34;;;7.37;100.00
75221;BME280;63802;53.232;6.570;2023-05-29T02:05:41;102686.94;;;7.33;100.00
75221;BME280;63802;53.232;6.570;2023-05-29T02:08:06;102688.56;;;7.34;100.00
75221;BME280;63802;53.232;6.570;2023-05-29T02:10:31;102694.56;;;7.31;100.00
75221;BME280;63802;53.232;6.570;2023-05-29T02:12:57;102690.91;;;7.22;100.00
75221;BME280;63802;53.232;6.570;2023-05-29T02:15:23;102695.22;;;7.23;100.00
75221;BME280;63802;53.232;6.570;2023-05-29T02:17:48;102702.78;;;7.26;100.00
75221;BME280;63802;53.232;6.570;2023-05-29T02:20:14;102691.34;;;7.29;100.00
75221;BME280;63802;53.232;6.570;2023-05-29T02:22:40;102686.34;;;7.36;100.00
75221;BME280;63802;53.232;6.570;2023-05-29T02:25:06;102691.63;;;7.46;100.00
75221;BME280;63802;53.232;6.570;2023-05-29T02:27:32;102695.66;;;7.49;100.00
75221;BME280;63802;53.232;6.570;2023-05-29T02:29:57;102693.22;;;7.47;100.00
75221;BME280;63802;53.232;6.570;2023-05-29T02:32:23;102704.16;;;7.42;100.00
75221;BME280;63802;53.232;6.570;2023-05-29T02:34:49;102700.44;;;7.38;100.00
75221;BME280;63802;53.232;6.570;2023-05-29T02:37:16;102688.84;;;7.32;100.00
75221;BME280;63802;53.232;6.570;2023-05-29T02:39:41;102703.81;;;7.30;100.00
75221;BME280;63802;53.232;6.570;2023-05-29T02:42:06;102689.72;;;7.28;100.00
75221;BME280;63802;53.232;6.570;2023-05-29T02:44:32;102683.72;;;7.31;100.00
75221;BME280;63802;53.232;6.570;2023-05-29T02:46:57;102688.03;;;7.32;100.00
75221;BME280;63802;53.232;6.570;2023-05-29T02:49:23;102699.78;;;7.46;100.00
75221;BME280;63802;53.232;6.570;2023-05-29T02:51:48;102694.47;;;7.55;100.00
75221;BME280;63802;53.232;6.570;2023-05-29T02:54:13;102691.88;;;7.63;100.00
75221;BME280;63802;53.232;6.570;2023-05-29T02:56:39;102690.31;;;7.76;100.00
75221;BME280;63802;53.232;6.570;2023-05-29T02:59:04;102689.06;;;7.87;100.00
75221;BME280;63802;53.232;6.570;2023-05-29T03:01:30;102684.31;;;7.92;100.00
75221;BME280;63802;53.232;6.570;2023-05-29T03:03:57;102687.53;;;7.94;100.00
75221;BME280;63802;53.232;6.570;2023-05-29T03:06:23;102686.53;;;7.90;100.00
75221;BME280;63802;53.232;6.570;2023-05-29T03:08:48;102680.69;;;7.83;100.00
75221;BME280;63802;53.232;6.570;2023-05-29T03:11:14;102687.94;;;7.88;100.00
75221;BME280;63802;53.232;6.570;2023-05-29T03:13:41;102687.94;;;7.88;100.00
75221;BME280;63802;53.232;6.570;2023-05-29T03:16:07;102685.94;;;7.93;100.00
75221;BME280;63802;53.232;6.570;2023-05-29T03:18:33;102688.59;;;7.98;100.00
75221;BME280;63802;53.232;6.570;2023-05-29T03:21:00;102690.41;;;8.03;100.00
75221;BME280;63802;53.232;6.570;2023-05-29T03:23:26;102689.69;;;8.11;100.00
75221;BME280;63802;53.232;6.570;2023-05-29T03:25:51;102689.00;;;8.19;100.00
75221;BME280;63802;53.232;6.570;2023-05-29T03:28:17;102692.88;;;8.32;100.00
75221;BME280;63802;53.232;6.570;2023-05-29T03:30:42;102685.63;;;8.41;100.00
75221;BME280;63802;53.232;6.570;2023-05-29T03:33:07;102687.16;;;8.47;100.00
75221;BME280;63802;53.232;6.570;2023-05-29T03:35:33;102694.09;;;8.53;100.00
75221;BME280;63802;53.232;6.570;2023-05-29T03:37:58;102698.34;;;8.59;100.00
75221;BME280;63802;53.232;6.570;2023-05-29T03:40:24;102705.38;;;8.60;100.00
75221;BME280;63802;53.232;6.570;2023-05-29T03:42:49;102687.97;;;8.61;100.00
75221;BME280;63802;53.232;6.570;2023-05-29T03:45:14;102697.81;;;8.70;100.00
75221;BME280;63802;53.232;6.570;2023-05-29T03:47:40;102702.97;;;8.72;100.00
75221;BME280;63802;53.232;6.570;2023-05-29T03:50:06;102712.00;;;8.81;100.00
75221;BME280;63802;53.232;6.570;2023-05-29T03:52:31;102698.91;;;8.83;100.00
75221;BME280;63802;53.232;6.570;2023-05-29T03:54:57;102703.97;;;8.90;100.00
75221;BME280;63802;53.232;6.570;2023-05-29T03:57:23;102703.63;;;8.91;100.00
75221;BME280;63802;53.232;6.570;2023-05-29T03:59:48;102712.03;;;8.95;100.00
75221;BME280;63802;53.232;6.570;2023-05-29T04:02:14;102703.53;;;8.96;100.00
75221;BME280;63802;53.232;6.570;2023-05-29T04:04:39;102701.81;;;9.00;100.00
75221;BME280;63802;53.232;6.570;2023-05-29T04:07:08;102712.59;;;9.05;100.00
75221;BME280;63802;53.232;6.570;2023-05-29T04:09:33;102717.31;;;9.13;100.00
75221;BME280;63802;53.232;6.570;2023-05-29T04:11:59;102712.16;;;9.12;100.00
75221;BME280;63802;53.232;6.570;2023-05-29T04:14:28;102719.63;;;9.20;100.00
75221;BME280;63802;53.232;6.570;2023-05-29T04:16:53;102711.13;;;9.21;100.00
75221;BME280;63802;53.232;6.570;2023-05-29T04:19:19;102711.03;;;9.26;100.00
75221;BME280;63802;53.232;6.570;2023-05-29T04:21:45;102711.72;;;9.32;100.00
75221;BME280;63802;53.232;6.570;2023-05-29T04:24:13;102717.25;;;9.40;100.00
75221;BME280;63802;53.232;6.570;2023-05-29T04:26:38;102700.00;;;9.31;100.00
75221;BME280;63802;53.232;6.570;2023-05-29T04:29:09;102711.41;;;9.33;100.00
75221;BME280;63802;53.232;6.570;2023-05-29T04:31:34;102724.91;;;9.38;100.00
75221;BME280;63802;53.232;6.570;2023-05-29T04:34:02;102717.00;;;9.28;100.00
75221;BME280;63802;53.232;6.570;2023-05-29T04:36:29;102730.09;;;9.26;100.00
75221;BME280;63802;53.232;6.570;2023-05-29T04:38:57;102712.75;;;9.22;100.00
75221;BME280;63802;53.232;6.570;2023-05-29T04:41:24;102720.13;;;9.22;100.00
75221;BME280;63802;53.232;6.570;2023-05-29T04:43:55;102728.50;;;9.25;100.00
75221;BME280;63802;53.232;6.570;2023-05-29T04:46:22;102723.53;;;9.27;100.00
75221;BME280;63802;53.232;6.570;2023-05-29T04:48:47;102736.72;;;9.34;100.00
75221;BME280;63802;53.232;6.570;2023-05-29T04:51:13;102739.22;;;9.44;100.00
75221;BME280;63802;53.232;6.570;2023-05-29T04:53:39;102734.97;;;9.52;100.00
75221;BME280;63802;53.232;6.570;2023-05-29T04:56:06;102739.19;;;9.58;100.00
75221;BME280;63802;53.232;6.570;2023-05-29T04:58:32;102713.16;;;9.52;100.00
75221;BME280;63802;53.232;6.570;2023-05-29T05:00:58;102721.47;;;9.69;100.00
75221;BME280;63802;53.232;6.570;2023-05-29T05:03:24;102712.81;;;9.67;100.00
75221;BME280;63802;53.232;6.570;2023-05-29T05:05:50;102731.75;;;9.72;100.00
75221;BME280;63802;53.232;6.570;2023-05-29T05:08:17;102741.91;;;9.80;100.00
75221;BME280;63802;53.232;6.570;2023-05-29T05:10:42;102736.16;;;9.81;100.00
75221;BME280;63802;53.232;6.570;2023-05-29T05:13:07;102737.69;;;9.96;100.00
75221;BME280;63802;53.232;6.570;2023-05-29T05:15:33;102739.00;;;10.21;100.00
75221;BME280;63802;53.232;6.570;2023-05-29T05:17:58;102738.00;;;10.39;100.00
75221;BME280;63802;53.232;6.570;2023-05-29T05:20:24;102739.34;;;10.58;100.00
75221;BME280;63802;53.232;6.570;2023-05-29T05:22:49;102747.78;;;10.79;100.00
75221;BME280;63802;53.232;6.570;2023-05-29T05:25:14;102740.59;;;10.92;100.00
75221;BME280;63802;53.232;6.570;2023-05-29T05:27:40;102740.47;;;11.14;100.00
75221;BME280;63802;53.232;6.570;2023-05-29T05:30:06;102739.69;;;11.48;100.00
75221;BME280;63802;53.232;6.570;2023-05-29T05:32:32;102734.38;;;11.51;100.00
75221;BME280;63802;53.232;6.570;2023-05-29T05:34:57;102731.31;;;11.53;100.00
75221;BME280;63802;53.232;6.570;2023-05-29T05:37:23;102732.94;;;11.62;100.00
75221;BME280;63802;53.232;6.570;2023-05-29T05:39:49;102738.59;;;11.74;100.00
75221;BME280;63802;53.232;6.570;2023-05-29T05:42:16;102733.09;;;11.91;100.00
75221;BME280;63802;53.232;6.570;2023-05-29T05:44:41;102738.22;;;11.93;100.00
75221;BME280;63802;53.232;6.570;2023-05-29T05:47:07;102742.38;;;12.07;100.00
75221;BME280;63802;53.232;6.570;2023-05-29T05:49:33;102740.16;;;12.01;100.00
75221;BME280;63802;53.232;6.570;2023-05-29T05:51:58;102738.03;;;12.15;99.08
75221;BME280;63802;53.232;6.570;2023-05-29T05:54:23;102737.72;;;12.08;98.22
75221;BME280;63802;53.232;6.570;2023-05-29T05:56:49;102746.63;;;11.96;98.01
75221;BME280;63802;53.232;6.570;2023-05-29T05:59:14;102753.66;;;11.97;98.01
75221;BME280;63802;53.232;6.570;2023-05-29T06:01:40;102739.50;;;11.95;98.05
75221;BME280;63802;53.232;6.570;2023-05-29T06:04:06;102732.13;;;11.96;97.97
75221;BME280;63802;53.232;6.570;2023-05-29T06:06:32;102745.00;;;12.04;98.61
75221;BME280;63802;53.232;6.570;2023-05-29T06:08:57;102752.88;;;11.97;98.42
75221;BME280;63802;53.232;6.570;2023-05-29T06:11:24;102750.72;;;12.20;98.10
75221;BME280;63802;53.232;6.570;2023-05-29T06:13:53;102749.78;;;12.16;97.68
75221;BME280;63802;53.232;6.570;2023-05-29T06:16:19;102759.97;;;12.53;97.96
75221;BME280;63802;53.232;6.570;2023-05-29T06:18:44;102764.16;;;12.59;97.09
75221;BME280;63802;53.232;6.570;2023-05-29T06:21:12;102769.56;;;12.76;94.84
75221;BME280;63802;53.232;6.570;2023-05-29T06:23:37;102766.75;;;12.85;92.37
75221;BME280;63802;53.232;6.570;2023-05-29T06:26:03;102771.44;;;12.84;90.04
75221;BME280;63802;53.232;6.570;2023-05-29T06:28:29;102767.84;;;12.92;88.54
75221;BME280;63802;53.232;6.570;2023-05-29T06:30:55;102771.16;;;12.77;87.67
75221;BME280;63802;53.232;6.570;2023-05-29T06:33:21;102780.94;;;12.49;87.82
75221;BME280;63802;53.232;6.570;2023-05-29T06:35:47;102775.84;;;12.30;90.57
75221;BME280;63802;53.232;6.570;2023-05-29T06:38:16;102794.78;;;12.44;92.91
75221;BME280;63802;53.232;6.570;2023-05-29T06:40:41;102790.56;;;12.55;90.99
75221;BME280;63802;53.232;6.570;2023-05-29T06:43:06;102790.13;;;12.44;92.03
75221;BME280;63802;53.232;6.570;2023-05-29T06:45:32;102786.25;;;12.45;92.91
75221;BME280;63802;53.232;6.570;2023-05-29T06:47:57;102797.81;;;12.59;92.82
75221;BME280;63802;53.232;6.570;2023-05-29T06:50:23;102797.16;;;12.62;92.45
75221;BME280;63802;53.232;6.570;2023-05-29T06:52:48;102801.84;;;12.62;92.64
75221;BME280;63802;53.232;6.570;2023-05-29T06:55:14;102800.69;;;12.63;92.14
75221;BME280;63802;53.232;6.570;2023-05-29T06:57:39;102802.72;;;12.83;90.16
75221;BME280;63802;53.232;6.570;2023-05-29T07:00:05;102800.09;;;12.95;89.59
75221;BME280;63802;53.232;6.570;2023-05-29T07:02:31;102799.03;;;13.17;87.56
75221;BME280;63802;53.232;6.570;2023-05-29T07:04:57;102811.34;;;13.02;86.83
75221;BME280;63802;53.232;6.570;2023-05-29T07:07:22;102818.41;;;12.74;87.29
75221;BME280;63802;53.232;6.570;2023-05-29T07:09:48;102818.25;;;12.70;88.45
75221;BME280;63802;53.232;6.570;2023-05-29T07:12:13;102816.09;;;12.85;88.70
75221;BME280;63802;53.232;6.570;2023-05-29T07:14:39;102818.75;;;13.02;87.65
75221;BME280;63802;53.232;6.570;2023-05-29T07:17:05;102814.25;;;12.97;86.16
75221;BME280;63802;53.232;6.570;2023-05-29T07:19:31;102816.81;;;13.02;84.37
75221;BME280;63802;53.232;6.570;2023-05-29T07:21:59;102825.41;;;13.30;86.51
75221;BME280;63802;53.232;6.570;2023-05-29T07:24:25;102815.88;;;13.57;86.32
75221;BME280;63802;53.232;6.570;2023-05-29T07:26:50;102828.03;;;13.68;83.43
75221;BME280;63802;53.232;6.570;2023-05-29T07:29:16;102816.91;;;14.05;82.61
75221;BME280;63802;53.232;6.570;2023-05-29T07:31:43;102826.19;;;14.01;80.37
75221;BME280;63802;53.232;6.570;2023-05-29T07:34:09;102820.44;;;14.06;79.23
75221;BME280;63802;53.232;6.570;2023-05-29T07:36:35;102815.44;;;13.87;78.93
75221;BME280;63802;53.232;6.570;2023-05-29T07:39:01;102805.84;;;13.81;80.10
75221;BME280;63802;53.232;6.570;2023-05-29T07:41:26;102805.03;;;14.13;81.15
75221;BME280;63802;53.232;6.570;2023-05-29T07:43:52;102795.66;;;14.47;80.75
75221;BME280;63802;53.232;6.570;2023-05-29T07:46:18;102811.50;;;14.74;78.61
75221;BME280;63802;53.232;6.570;2023-05-29T07:48:44;102814.06;;;15.04;76.11
75221;BME280;63802;53.232;6.570;2023-05-29T07:51:12;102815.41;;;14.73;75.72
75221;BME280;63802;53.232;6.570;2023-05-29T07:53:37;102818.72;;;14.67;74.72
75221;BME280;63802;53.232;6.570;2023-05-29T07:56:03;102823.19;;;14.71;75.63
75221;BME280;63802;53.232;6.570;2023-05-29T07:58:29;102825.72;;;14.76;75.27
75221;BME280;63802;53.232;6.570;2023-05-29T08:00:54;102827.00;;;14.91;74.69
75221;BME280;63802;53.232;6.570;2023-05-29T08:03:19;102828.22;;;14.69;74.10
75221;BME280;63802;53.232;6.570;2023-05-29T08:05:45;102838.53;;;14.60;74.62
75221;BME280;63802;53.232;6.570;2023-05-29T08:08:10;102823.13;;;14.47;74.62
75221;BME280;63802;53.232;6.570;2023-05-29T08:10:38;102824.31;;;14.58;74.37
75221;BME280;63802;53.232;6.570;2023-05-29T08:13:03;102819.31;;;14.72;75.95
75221;BME280;63802;53.232;6.570;2023-05-29T08:15:29;102828.38;;;14.85;73.55
75221;BME280;63802;53.232;6.570;2023-05-29T08:17:56;102815.28;;;14.58;73.05
75221;BME280;63802;53.232;6.570;2023-05-29T08:20:21;102820.44;;;14.71;74.54
75221;BME280;63802;53.232;6.570;2023-05-29T08:22:47;102827.97;;;14.50;73.82
75221;BME280;63802;53.232;6.570;2023-05-29T08:25:12;102828.44;;;14.64;73.93
75221;BME280;63802;53.232;6.570;2023-05-29T08:27:38;102834.84;;;14.68;73.34
75221;BME280;63802;53.232;6.570;2023-05-29T08:30:04;102840.34;;;14.68;74.33
75221;BME280;63802;53.232;6.570;2023-05-29T08:32:29;102826.84;;;14.88;74.02
75221;BME280;63802;53.232;6.570;2023-05-29T08:34:55;102836.97;;;15.20;72.89
75221;BME280;63802;53.232;6.570;2023-05-29T08:37:20;102826.63;;;15.05;72.31
75221;BME280;63802;53.232;6.570;2023-05-29T08:39:46;102847.25;;;14.74;73.80
75221;BME280;63802;53.232;6.570;2023-05-29T08:42:21;102831.09;;;14.73;74.76
75221;BME280;63802;53.232;6.570;2023-05-29T08:44:47;102847.03;;;14.92;75.06
75221;BME280;63802;53.232;6.570;2023-05-29T08:47:17;102832.38;;;15.00;76.07
75221;BME280;63802;53.232;6.570;2023-05-29T08:49:45;102846.84;;;15.45;73.88
75221;BME280;63802;53.232;6.570;2023-05-29T08:52:18;102851.16;;;15.34;71.62
75221;BME280;63802;53.232;6.570;2023-05-29T08:54:45;102850.50;;;15.13;72.95
75221;BME280;63802;53.232;6.570;2023-05-29T08:57:11;102850.25;;;15.30;73.43
75221;BME280;63802;53.232;6.570;2023-05-29T08:59:39;102843.28;;;15.20;73.33
75221;BME280;63802;53.232;6.570;2023-05-29T09:02:10;102847.72;;;15.25;74.35
75221;BME280;63802;53.232;6.570;2023-05-29T09:04:43;102847.72;;;15.01;73.33
75221;BME280;63802;53.232;6.570;2023-05-29T09:07:11;102844.97;;;14.89;75.98
75221;BME280;63802;53.232;6.570;2023-05-29T09:09:36;102857.91;;;15.00;73.85
75221;BME280;63802;53.232;6.570;2023-05-29T09:12:03;102858.16;;;15.07;73.08
75221;BME280;63802;53.232;6.570;2023-05-29T09:14:47;102846.03;;;15.45;70.76
75221;BME280;63802;53.232;6.570;2023-05-29T09:17:12;102855.84;;;15.21;71.09
75221;BME280;63802;53.232;6.570;2023-05-29T09:19:39;102854.75;;;15.47;70.40
75221;BME280;63802;53.232;6.570;2023-05-29T09:22:13;102845.88;;;15.65;70.26
75221;BME280;63802;53.232;6.570;2023-05-29T09:24:40;102844.81;;;15.70;67.89
75221;BME280;63802;53.232;6.570;2023-05-29T09:27:08;102844.72;;;15.78;69.51
75221;BME280;63802;53.232;6.570;2023-05-29T09:29:44;102842.25;;;15.89;69.61
75221;BME280;63802;53.232;6.570;2023-05-29T09:32:12;102845.59;;;16.10;68.91
75221;BME280;63802;53.232;6.570;2023-05-29T09:34:38;102861.56;;;16.17;68.45
75221;BME280;63802;53.232;6.570;2023-05-29T09:37:08;102861.81;;;16.12;66.47
75221;BME280;63802;53.232;6.570;2023-05-29T09:39:44;102851.28;;;16.01;67.17
75221;BME280;63802;53.232;6.570;2023-05-29T09:42:10;102850.97;;;15.91;67.24
75221;BME280;63802;53.232;6.570;2023-05-29T09:44:36;102854.63;;;16.23;67.05
75221;BME280;63802;53.232;6.570;2023-05-29T09:47:01;102853.38;;;16.48;67.63
75221;BME280;63802;53.232;6.570;2023-05-29T09:49:27;102846.91;;;16.56;68.16
75221;BME280;63802;53.232;6.570;2023-05-29T09:51:56;102853.00;;;16.77;66.55
75221;BME280;63802;53.232;6.570;2023-05-29T09:54:27;102850.41;;;16.84;63.62
75221;BME280;63802;53.232;6.570;2023-05-29T09:56:54;102851.09;;;16.65;63.33
75221;BME280;63802;53.232;6.570;2023-05-29T09:59:24;102842.78;;;16.50;63.33
75221;BME280;63802;53.232;6.570;2023-05-29T10:02:01;102835.13;;;16.43;63.83
75221;BME280;63802;53.232;6.570;2023-05-29T10:04:30;102836.34;;;16.58;64.64
75221;BME280;63802;53.232;6.570;2023-05-29T10:07:04;102847.47;;;17.08;63.70
75221;BME280;63802;53.232;6.570;2023-05-29T10:09:33;102854.78;;;17.51;63.54
75221;BME280;63802;53.232;6.570;2023-05-29T10:12:00;102841.53;;;17.57;61.10
75221;BME280;63802;53.232;6.570;2023-05-29T10:14:30;102856.06;;;17.38;62.56
75221;BME280;63802;53.232;6.570;2023-05-29T10:17:01;102846.41;;;17.48;61.16
75221;BME280;63802;53.232;6.570;2023-05-29T10:19:30;102847.25;;;17.32;61.98
75221;BME280;63802;53.232;6.570;2023-05-29T10:21:57;102849.25;;;16.85;62.65
75221;BME280;63802;53.232;6.570;2023-05-29T10:24:24;102842.31;;;16.60;63.64
75221;BME280;63802;53.232;6.570;2023-05-29T10:26:51;102839.69;;;16.51;65.17
75221;BME280;63802;53.232;6.570;2023-05-29T10:37:26;102849.84;;;17.25;62.77
75221;BME280;63802;53.232;6.570;2023-05-29T10:40:06;102852.19;;;17.08;63.82
75221;BME280;63802;53.232;6.570;2023-05-29T10:42:49;102859.34;;;17.28;64.64
75221;BME280;63802;53.232;6.570;2023-05-29T10:50:37;102846.53;;;17.35;62.03
75221;BME280;63802;53.232;6.570;2023-05-29T10:53:06;102838.31;;;17.55;62.21
75221;BME280;63802;53.232;6.570;2023-05-29T10:55:38;102855.03;;;17.27;61.23
75221;BME280;63802;53.232;6.570;2023-05-29T10:58:40;102852.09;;;17.04;60.44
75221;BME280;63802;53.232;6.570;2023-05-29T11:00:58;102860.44;;;17.23;63.25
75221;BME280;63802;53.232;6.570;2023-05-29T11:03:29;102844.56;;;17.52;61.83
75221;BME280;63802;53.232;6.570;2023-05-29T11:06:03;102844.63;;;17.90;59.60
75221;BME280;63802;53.232;6.570;2023-05-29T11:11:11;102842.53;;;17.33;60.42
75221;BME280;63802;53.232;6.570;2023-05-29T11:13:37;102856.88;;;17.38;60.86
75221;BME280;63802;53.232;6.570;2023-05-29T11:16:35;102857.06;;;17.14;62.37
75221;BME280;63802;53.232;6.570;2023-05-29T11:19:08;102847.91;;;17.10;60.73
75221;BME280;63802;53.232;6.570;2023-05-29T11:24:28;102848.88;;;16.71;63.24
75221;BME280;63802;53.232;6.570;2023-05-29T11:26:56;102861.75;;;16.24;65.49
75221;BME280;63802;53.232;6.570;2023-05-29T11:29:24;102856.13;;;16.48;66.43
75221;BME280;63802;53.232;6.570;2023-05-29T11:31:58;102872.63;;;16.75;64.92
75221;BME280;63802;53.232;6.570;2023-05-29T11:34:25;102855.34;;;17.25;64.22
75221;BME280;63802;53.232;6.570;2023-05-29T11:36:53;102858.63;;;17.47;61.21
75221;BME280;63802;53.232;6.570;2023-05-29T11:39:18;102845.06;;;17.07;61.52
75221;BME280;63802;53.232;6.570;2023-05-29T11:41:44;102855.31;;;17.57;60.42
75221;BME280;63802;53.232;6.570;2023-05-29T11:44:13;102854.63;;;17.79;56.77
75221;BME280;63802;53.232;6.570;2023-05-29T11:46:38;102849.38;;;17.55;58.86
75221;BME280;63802;53.232;6.570;2023-05-29T11:49:05;102853.78;;;17.75;55.97
75221;BME280;63802;53.232;6.570;2023-05-29T11:51:30;102848.09;;;17.68;55.88
75221;BME280;63802;53.232;6.570;2023-05-29T11:53:57;102842.16;;;17.85;57.86
75221;BME280;63802;53.232;6.570;2023-05-29T11:56:29;102851.38;;;18.12;57.59
75221;BME280;63802;53.232;6.570;2023-05-29T11:58:57;102850.72;;;17.80;58.36
75221;BME280;63802;53.232;6.570;2023-05-29T12:01:25;102856.94;;;17.58;59.71
75221;BME280;63802;53.232;6.570;2023-05-29T12:03:52;102847.34;;;17.71;59.43
75221;BME280;63802;53.232;6.570;2023-05-29T12:06:31;102852.91;;;17.90;59.48
75221;BME280;63802;53.232;6.570;2023-05-29T12:08:57;102855.50;;;17.48;56.87
75221;BME280;63802;53.232;6.570;2023-05-29T12:11:25;102855.69;;;17.90;60.91
75221;BME280;63802;53.232;6.570;2023-05-29T12:13:58;102847.97;;;17.99;59.32
75221;BME280;63802;53.232;6.570;2023-05-29T12:16:25;102846.78;;;18.19;59.57
75221;BME280;63802;53.232;6.570;2023-05-29T12:18:52;102850.88;;;18.25;58.22
75221;BME280;63802;53.232;6.570;2023-05-29T12:21:19;102854.50;;;18.10;58.87
75221;BME280;63802;53.232;6.570;2023-05-29T12:23:45;102853.78;;;17.75;58.26
75221;BME280;63802;53.232;6.570;2023-05-29T12:26:10;102857.84;;;17.81;58.63
75221;BME280;63802;53.232;6.570;2023-05-29T12:28:42;102842.31;;;17.92;58.27
75221;BME280;63802;53.232;6.570;2023-05-29T12:31:08;102844.78;;;17.97;55.51
75221;BME280;63802;53.232;6.570;2023-05-29T12:33:34;102846.31;;;18.36;55.02
75221;BME280;63802;53.232;6.570;2023-05-29T12:36:06;102846.41;;;18.59;51.93
75221;BME280;63802;53.232;6.570;2023-05-29T12:38:41;102842.53;;;18.63;52.06
75221;BME280;63802;53.232;6.570;2023-05-29T12:41:27;102854.78;;;18.24;54.49
75221;BME280;63802;53.232;6.570;2023-05-29T12:43:55;102850.75;;;18.60;53.67
75221;BME280;63802;53.232;6.570;2023-05-29T12:46:22;102855.50;;;18.59;52.49
75221;BME280;63802;53.232;6.570;2023-05-29T12:48:47;102849.09;;;18.55;51.89
75221;BME280;63802;53.232;6.570;2023-05-29T12:51:13;102846.56;;;18.69;51.18
75221;BME280;63802;53.232;6.570;2023-05-29T12:53:38;102854.47;;;18.90;50.51
75221;BME280;63802;53.232;6.570;2023-05-29T12:56:07;102852.75;;;18.40;53.28
75221;BME280;63802;53.232;6.570;2023-05-29T12:58:32;102843.31;;;18.87;51.68
75221;BME280;63802;53.232;6.570;2023-05-29T13:00:57;102847.63;;;18.84;52.65
75221;BME280;63802;53.232;6.570;2023-05-29T13:03:23;102829.78;;;18.82;54.25
75221;BME280;63802;53.232;6.570;2023-05-29T13:05:50;102839.84;;;19.16;52.49
75221;BME280;63802;53.232;6.570;2023-05-29T13:08:15;102830.13;;;19.03;52.83
75221;BME280;63802;53.232;6.570;2023-05-29T13:10:41;102828.88;;;19.23;51.78
75221;BME280;63802;53.232;6.570;2023-05-29T13:13:06;102849.84;;;18.98;48.29
75221;BME280;63802;53.232;6.570;2023-05-29T13:15:31;102845.22;;;18.83;47.11
75221;BME280;63802;53.232;6.570;2023-05-29T13:17:58;102845.44;;;19.19;46.64
75221;BME280;63802;53.232;6.570;2023-05-29T13:20:24;102842.31;;;19.47;47.57